createdAt,value
2018-09-21T00:01:59.504Z,99638.41
2018-09-21T00:04:29.204Z,99637.63
2018-09-21T00:06:58.764Z,99633.41
2018-09-21T00:09:28.480Z,99629.89
2018-09-21T00:11:58.096Z,99627.61
2018-09-21T00:14:27.695Z,99617.81
2018-09-21T00:16:57.295Z,99614.78
2018-09-21T00:19:26.850Z,99614.92
2018-09-21T00:21:56.391Z,99612.64
2018-09-21T00:24:25.994Z,99603.32
2018-09-21T00:26:55.596Z,99604.16
2018-09-21T00:29:25.189Z,99604.23
2018-09-21T00:31:54.737Z,99605.98
2018-09-21T00:34:24.283Z,99604.05
2018-09-21T00:36:53.882Z,99594.83
2018-09-21T00:39:23.555Z,99591.66
2018-09-21T00:41:53.169Z,99591.55
2018-09-21T00:44:22.819Z,99581.78
2018-09-21T00:46:52.429Z,99586.23
2018-09-21T00:49:22.223Z,99569.83
2018-09-21T00:51:52.055Z,99571.13
2018-09-21T00:54:21.810Z,99571.05
2018-09-21T00:56:52.015Z,99573.70
2018-09-21T00:59:21.645Z,99558.16
2018-09-21T01:01:51.208Z,99553.14
2018-09-21T01:04:20.821Z,99551.58
2018-09-21T01:06:50.504Z,99548.55
2018-09-21T01:09:20.121Z,99541.38
2018-09-21T01:11:49.781Z,99543.84
2018-09-21T01:14:19.337Z,99531.17
2018-09-21T01:16:49.075Z,99538.38
2018-09-21T01:19:18.668Z,99532.72
2018-09-21T01:21:48.301Z,99528.99
2018-09-21T01:24:17.926Z,99523.22
2018-09-21T01:26:47.514Z,99521.06
2018-09-21T01:29:17.106Z,99523.71
2018-09-21T01:31:46.688Z,99518.27
2018-09-21T01:34:16.688Z,99513.41
2018-09-21T01:36:46.290Z,99510.92
2018-09-21T01:39:15.960Z,99509.30
2018-09-21T01:41:45.510Z,99506.20
2018-09-21T01:44:15.080Z,99503.48
2018-09-21T01:46:44.659Z,99498.72
2018-09-21T01:49:14.204Z,99485.84
2018-09-21T01:51:43.755Z,99495.28
2018-09-21T01:54:13.594Z,99488.48
2018-09-21T01:56:43.144Z,99483.09
2018-09-21T01:59:12.757Z,99482.52
2018-09-21T02:01:42.390Z,99474.98
2018-09-21T02:04:12.038Z,99465.30
2018-09-21T02:06:41.607Z,99453.23
2018-09-21T02:09:11.308Z,99451.67
2018-09-21T02:11:40.870Z,99453.09
2018-09-21T02:14:10.431Z,99456.53
2018-09-21T02:16:40.044Z,99453.48
2018-09-21T02:19:09.658Z,99443.97
2018-09-21T02:21:39.223Z,99438.11
2018-09-21T02:24:08.862Z,99441.47
2018-09-21T02:26:38.467Z,99434.09
2018-09-21T02:29:08.012Z,99432.59
2018-09-21T02:31:37.596Z,99428.19
2018-09-21T02:34:07.632Z,99418.72
2018-09-21T02:36:37.247Z,99424.38
2018-09-21T02:39:09.275Z,99423.27
2018-09-21T02:41:38.964Z,99419.66
2018-09-21T02:44:08.597Z,99416.47
2018-09-21T02:46:38.205Z,99412.97
2018-09-21T02:49:07.848Z,99401.80
2018-09-21T02:51:37.584Z,99403.42
2018-09-21T02:54:07.275Z,99401.07
2018-09-21T02:56:37.507Z,99399.79
2018-09-21T02:59:07.189Z,99387.92
2018-09-21T03:01:36.753Z,99386.51
2018-09-21T03:04:06.539Z,99372.43
2018-09-21T03:06:36.130Z,99360.91
2018-09-21T03:09:09.478Z,99362.48
2018-09-21T03:11:39.160Z,99359.19
2018-09-21T03:14:08.804Z,99352.33
2018-09-21T03:16:38.478Z,99347.19
2018-09-21T03:19:08.107Z,99339.33
2018-09-21T03:21:37.744Z,99336.63
2018-09-21T03:24:07.291Z,99336.44
2018-09-21T03:26:36.849Z,99332.19
2018-09-21T03:29:06.464Z,99324.14
2018-09-21T03:31:36.067Z,99310.97
2018-09-21T03:34:05.803Z,99310.18
2018-09-21T03:36:35.443Z,99303.72
2018-09-21T03:39:07.522Z,99289.96
2018-09-21T03:41:37.357Z,99291.91
2018-09-21T03:44:06.916Z,99280.71
2018-09-21T03:46:36.475Z,99263.25
2018-09-21T03:49:06.177Z,99261.27
2018-09-21T03:51:35.729Z,99253.94
2018-09-21T03:54:05.392Z,99266.98
2018-09-21T03:56:36.311Z,99260.13
2018-09-21T03:59:06.060Z,99256.64
2018-09-21T04:01:35.695Z,99254.05
2018-09-21T04:04:05.370Z,99254.42
2018-09-21T04:06:34.903Z,99252.27
2018-09-21T04:09:06.743Z,99246.51
2018-09-21T04:11:36.313Z,99227.45
2018-09-21T04:14:06.028Z,99231.03
2018-09-21T04:16:35.646Z,99218.03
2018-09-21T04:19:05.295Z,99203.16
2018-09-21T04:21:34.834Z,99191.78
2018-09-21T04:24:04.413Z,99187.16
2018-09-21T04:26:34.049Z,99181.82
2018-09-21T04:29:03.560Z,99188.63
2018-09-21T04:31:33.116Z,99187.17
2018-09-21T04:34:02.731Z,99189.19
2018-09-21T04:36:32.289Z,99175.63
2018-09-21T04:39:01.892Z,99175.30
2018-09-21T04:41:31.516Z,99165.55
2018-09-21T04:44:01.712Z,99158.55
2018-09-21T04:46:31.320Z,99157.51
2018-09-21T04:49:00.886Z,99156.07
2018-09-21T04:51:30.476Z,99158.06
2018-09-21T04:54:00.069Z,99145.78
2018-09-21T04:56:29.646Z,99142.95
2018-09-21T04:58:59.205Z,99145.70
2018-09-21T05:01:28.818Z,99138.58
2018-09-21T05:03:58.363Z,99144.23
2018-09-21T05:06:27.996Z,99139.14
2018-09-21T05:08:57.639Z,99141.45
2018-09-21T05:11:27.628Z,99139.37
2018-09-21T05:13:57.362Z,99138.83
2018-09-21T05:16:26.952Z,99138.39
2018-09-21T05:18:56.523Z,99130.33
2018-09-21T05:21:26.146Z,99122.69
2018-09-21T05:23:55.764Z,99116.42
2018-09-21T05:26:25.310Z,99113.31
2018-09-21T05:28:54.943Z,99109.13
2018-09-21T05:31:24.577Z,99105.91
2018-09-21T05:33:54.456Z,99105.77
2018-09-21T05:36:24.055Z,99102.73
2018-09-21T05:38:53.735Z,99100.27
2018-09-21T05:41:23.353Z,99092.15
2018-09-21T05:43:52.969Z,99088.58
2018-09-21T05:46:22.659Z,99096.00
2018-09-21T05:48:52.355Z,99096.49
2018-09-21T05:51:22.063Z,99086.69
2018-09-21T05:53:51.696Z,99083.20
2018-09-21T05:56:21.688Z,99100.19
2018-09-21T05:58:51.420Z,99095.66
2018-09-21T06:01:21.244Z,99088.63
2018-09-21T06:03:52.437Z,99088.39
2018-09-21T06:06:23.494Z,99087.99
2018-09-21T06:08:58.924Z,99088.32
2018-09-21T06:14:10.478Z,99083.85
2018-09-21T06:16:40.465Z,99086.89
2018-09-21T06:19:10.633Z,99081.77
2018-09-21T06:21:40.555Z,99075.86
2018-09-21T06:24:10.356Z,99076.77
2018-09-21T06:26:40.177Z,99073.08
2018-09-21T06:29:09.942Z,99067.66
2018-09-21T06:31:39.694Z,99063.06
2018-09-21T06:34:10.655Z,99056.09
2018-09-21T06:36:40.275Z,99050.67
2018-09-21T06:39:11.827Z,99045.25
2018-09-21T06:41:41.726Z,99042.64
2018-09-21T06:44:13.984Z,99051.73
2018-09-21T06:46:47.580Z,99047.80
2018-09-21T06:51:55.275Z,99040.98
2018-09-21T06:57:05.320Z,99032.28
2018-09-21T07:02:22.159Z,99032.57
2018-09-21T07:07:40.704Z,99026.41
2018-09-21T07:12:57.552Z,99034.57
2018-09-21T07:15:27.916Z,99042.05
2018-09-21T07:17:57.856Z,99049.34
2018-09-21T07:20:27.833Z,99042.96
2018-09-21T07:22:57.752Z,99040.97
2018-09-21T07:25:28.727Z,99035.64
2018-09-21T07:27:58.931Z,99031.63
2018-09-21T07:30:28.887Z,99043.61
2018-09-21T07:32:59.631Z,99029.62
2018-09-21T07:35:30.038Z,99036.69
2018-09-21T07:38:01.448Z,99034.70
2018-09-21T07:40:34.540Z,99025.15
2018-09-21T07:45:52.074Z,99038.95
2018-09-21T07:50:51.455Z,99064.94
2018-09-21T07:56:09.005Z,99038.69
2018-09-21T07:58:54.073Z,99042.53
2018-09-21T08:01:31.320Z,99034.34
2018-09-21T08:04:07.731Z,99058.98
2018-09-21T08:06:55.462Z,99050.75
2018-09-21T08:12:08.984Z,99060.12
2018-09-21T08:14:43.527Z,99057.58
2018-09-21T08:17:13.650Z,99062.36
2018-09-21T08:19:43.835Z,99074.66
2018-09-21T08:22:13.975Z,99070.33
2018-09-21T08:27:33.293Z,99079.65
2018-09-21T08:30:04.235Z,99074.59
2018-09-21T08:32:38.068Z,99073.69
2018-09-21T08:35:29.473Z,99079.81
2018-09-21T08:38:01.553Z,99080.55
2018-09-21T08:40:33.450Z,99070.58
2018-09-21T08:43:08.355Z,99082.34
2018-09-21T08:45:41.484Z,99082.87
2018-09-21T08:48:16.536Z,99086.08
2018-09-21T08:50:48.160Z,99075.23
2018-09-21T08:56:17.549Z,99045.28
2018-09-21T08:59:07.338Z,99048.58
2018-09-21T09:01:40.778Z,99035.44
2018-09-21T09:04:18.891Z,99023.52
2018-09-21T09:06:54.459Z,99016.62
2018-09-21T09:09:26.131Z,99019.74
2018-09-21T09:12:06.047Z,99008.84
2018-09-21T09:14:42.071Z,99015.67
2018-09-21T09:19:50.869Z,99017.70
2018-09-21T09:22:32.402Z,99007.56
2018-09-21T09:27:53.983Z,98997.58
2018-09-21T09:30:26.293Z,99002.41
2018-09-21T09:33:01.145Z,99017.77
2018-09-21T09:35:36.888Z,99025.28
2018-09-21T09:43:46.067Z,99025.66
2018-09-21T09:46:20.360Z,99030.78
2018-09-21T09:48:54.147Z,99045.88
2018-09-21T09:51:24.206Z,99057.02
2018-09-21T09:53:57.054Z,99063.44
2018-09-21T09:56:28.756Z,99067.38
2018-09-21T09:59:00.308Z,99092.31
2018-09-21T10:01:30.657Z,99104.63
2018-09-21T10:06:52.043Z,99156.03
2018-09-21T10:12:07.385Z,99214.53
2018-09-21T10:14:39.929Z,99229.44
2018-09-21T10:18:18.954Z,99265.73
2018-09-21T10:20:49.281Z,99299.42
2018-09-21T10:23:23.433Z,99304.26
2018-09-21T10:25:57.709Z,99309.22
2018-09-21T10:28:30.291Z,99313.09
2018-09-21T10:33:42.033Z,99340.41
2018-09-21T10:36:13.260Z,99346.44
2018-09-21T10:38:43.212Z,99350.81
2018-09-21T10:41:13.974Z,99353.02
2018-09-21T10:43:44.191Z,99360.09
2018-09-21T10:46:14.206Z,99342.19
2018-09-21T10:48:46.306Z,99343.11
2018-09-21T10:51:18.673Z,99370.44
2018-09-21T10:53:48.703Z,99370.05
2018-09-21T10:56:19.719Z,99390.75
2018-09-21T10:58:49.458Z,99393.88
2018-09-21T11:01:20.035Z,99394.35
2018-09-21T11:03:49.956Z,99400.18
2018-09-21T11:06:20.776Z,99400.11
2018-09-21T11:08:50.643Z,99405.23
2018-09-21T11:11:20.857Z,99412.09
2018-09-21T11:13:50.706Z,99419.48
2018-09-21T11:16:20.517Z,99428.79
2018-09-21T11:18:50.490Z,99434.33
2018-09-21T11:21:20.374Z,99441.06
2018-09-21T11:23:50.306Z,99444.69
2018-09-21T11:26:20.274Z,99431.73
2018-09-21T11:28:50.564Z,99417.48
2018-09-21T11:31:20.425Z,99409.03
2018-09-21T11:33:50.355Z,99409.34
2018-09-21T11:36:20.585Z,99405.69
2018-09-21T11:38:50.580Z,99392.39
2018-09-21T11:44:00.001Z,99411.95
2018-09-21T11:46:30.157Z,99410.21
2018-09-21T11:49:00.395Z,99435.61
2018-09-21T11:51:30.471Z,99452.06
2018-09-21T11:56:41.081Z,99434.57
2018-09-21T11:59:11.320Z,99435.31
2018-09-21T12:01:41.383Z,99439.95
2018-09-21T12:04:14.609Z,99440.42
2018-09-21T12:06:45.001Z,99445.72
2018-09-21T12:09:18.233Z,99432.54
2018-09-21T12:14:26.668Z,99433.08
2018-09-21T12:16:58.063Z,99433.31
2018-09-21T12:19:27.836Z,99430.98
2018-09-21T12:21:57.802Z,99444.91
2018-09-21T12:24:28.316Z,99446.33
2018-09-21T12:26:58.211Z,99455.45
2018-09-21T12:29:27.889Z,99457.42
2018-09-21T12:31:57.642Z,99443.20
2018-09-21T12:34:27.563Z,99462.68
2018-09-21T12:36:57.372Z,99457.18
2018-09-21T12:39:34.059Z,99470.98
2018-09-21T12:42:04.553Z,99462.41
2018-09-21T12:44:34.482Z,99469.88
2018-09-21T12:47:04.159Z,99474.59
2018-09-21T12:49:35.809Z,99451.64
2018-09-21T12:52:05.563Z,99452.59
2018-09-21T12:54:35.315Z,99470.24
2018-09-21T12:57:05.359Z,99464.47
2018-09-21T12:59:35.187Z,99453.67
2018-09-21T13:02:05.051Z,99468.78
2018-09-21T13:04:34.951Z,99472.18
2018-09-21T13:07:04.711Z,99461.77
2018-09-21T13:09:34.546Z,99467.44
2018-09-21T13:12:04.192Z,99458.63
2018-09-21T13:14:33.859Z,99460.50
2018-09-21T13:17:03.625Z,99454.36
2018-09-21T13:19:33.452Z,99460.11
2018-09-21T13:22:03.187Z,99459.86
2018-09-21T13:24:32.889Z,99477.19
2018-09-21T13:27:02.581Z,99474.45
2018-09-21T13:29:32.309Z,99480.06
2018-09-21T13:32:02.256Z,99471.29
2018-09-21T13:34:31.978Z,99480.75
2018-09-21T13:37:01.865Z,99491.88
2018-09-21T13:39:31.644Z,99492.89
2018-09-21T13:42:01.381Z,99478.72
2018-09-21T13:44:31.155Z,99484.59
2018-09-21T13:47:00.860Z,99489.20
2018-09-21T13:49:30.739Z,99495.14
2018-09-21T13:52:00.752Z,99478.25
2018-09-21T13:54:30.493Z,99478.48
2018-09-21T13:57:00.239Z,99474.44
2018-09-21T13:59:30.097Z,99488.19
2018-09-21T14:02:00.156Z,99484.08
2018-09-21T14:04:29.906Z,99492.45
2018-09-21T14:07:00.447Z,99496.17
2018-09-21T14:09:30.355Z,99503.34
2018-09-21T14:12:00.039Z,99517.88
2018-09-21T14:14:29.829Z,99506.88
2018-09-21T14:16:59.481Z,99510.55
2018-09-21T14:19:29.067Z,99520.19
2018-09-21T14:21:58.729Z,99537.00
2018-09-21T14:24:28.451Z,99545.84
2018-09-21T14:26:58.100Z,99529.86
2018-09-21T14:29:27.764Z,99526.89
2018-09-21T14:31:57.430Z,99538.75
2018-09-21T14:34:27.080Z,99547.02
2018-09-21T14:36:56.748Z,99562.95
2018-09-21T14:39:26.417Z,99558.82
2018-09-21T14:41:56.374Z,99563.13
2018-09-21T14:44:26.100Z,99570.52
2018-09-21T14:46:55.750Z,99563.98
2018-09-21T14:49:25.675Z,99562.41
2018-09-21T14:51:55.400Z,99559.56
2018-09-21T14:54:25.069Z,99568.95
2018-09-21T14:56:59.356Z,99558.81
2018-09-21T14:59:29.089Z,99570.14
2018-09-21T15:01:58.822Z,99566.28
2018-09-21T15:04:28.710Z,99564.72
2018-09-21T15:06:58.545Z,99569.90
2018-09-21T15:09:28.419Z,99569.88
2018-09-21T15:11:58.548Z,99573.39
2018-09-21T15:14:28.573Z,99569.06
2018-09-21T15:16:58.900Z,99561.02
2018-09-21T15:19:28.922Z,99578.46
2018-09-21T15:21:58.704Z,99559.39
2018-09-21T15:24:28.679Z,99585.20
2018-09-21T15:26:58.843Z,99589.95
2018-09-21T15:29:28.640Z,99603.72
2018-09-21T15:31:58.389Z,99592.38
2018-09-21T15:34:28.069Z,99585.70
2018-09-21T15:36:57.933Z,99578.41
2018-09-21T15:39:27.600Z,99599.34
2018-09-21T15:41:57.436Z,99607.69
2018-09-21T15:44:27.217Z,99601.43
2018-09-21T15:46:57.451Z,99605.77
2018-09-21T15:49:27.501Z,99605.20
2018-09-21T15:51:57.492Z,99610.14
2018-09-21T15:54:27.240Z,99595.84
2018-09-21T15:56:57.126Z,99609.55
2018-09-21T15:59:26.991Z,99611.70
2018-09-21T16:01:56.990Z,99613.05
2018-09-21T16:04:26.877Z,99614.59
2018-09-21T16:06:56.788Z,99630.65
2018-09-21T16:09:26.789Z,99626.38
2018-09-21T16:11:56.939Z,99625.55
2018-09-21T16:14:27.023Z,99640.54
2018-09-21T16:16:56.838Z,99641.83
2018-09-21T16:19:26.753Z,99650.20
2018-09-21T16:22:03.299Z,99647.22
2018-09-21T16:24:33.169Z,99654.66
2018-09-21T16:27:03.293Z,99639.66
2018-09-21T16:29:34.380Z,99663.17
2018-09-21T16:32:04.468Z,99662.12
2018-09-21T16:34:34.393Z,99666.39
2018-09-21T16:37:04.294Z,99666.83
2018-09-21T16:39:34.187Z,99663.17
2018-09-21T16:42:04.444Z,99662.20
2018-09-21T16:44:34.291Z,99669.84
2018-09-21T16:49:44.015Z,99683.23
2018-09-21T16:52:13.897Z,99673.69
2018-09-21T16:54:43.715Z,99675.45
2018-09-21T16:57:13.535Z,99674.27
2018-09-21T16:59:43.553Z,99681.23
2018-09-21T17:02:13.394Z,99674.80
2018-09-21T17:04:59.877Z,99677.66
2018-09-21T17:07:29.630Z,99676.41
2018-09-21T17:09:59.389Z,99683.69
2018-09-21T17:12:29.171Z,99689.47
2018-09-21T17:14:58.965Z,99693.53
2018-09-21T17:17:28.716Z,99702.59
2018-09-21T17:19:58.719Z,99698.27
2018-09-21T17:22:28.460Z,99704.78
2018-09-21T17:24:58.341Z,99707.72
2018-09-21T17:27:28.160Z,99715.16
2018-09-21T17:29:57.941Z,99728.55
2018-09-21T17:32:27.604Z,99728.42
2018-09-21T17:34:57.394Z,99732.12
2018-09-21T17:37:27.303Z,99727.10
2018-09-21T17:39:57.916Z,99738.12
2018-09-21T17:42:27.702Z,99744.50
2018-09-21T17:44:57.714Z,99758.73
2018-09-21T17:47:28.028Z,99766.28
2018-09-21T17:49:57.809Z,99764.63
2018-09-21T17:52:27.798Z,99772.89
2018-09-21T17:54:57.496Z,99782.91
2018-09-21T17:57:27.784Z,99790.28
2018-09-21T17:59:57.573Z,99796.30
2018-09-21T18:02:27.638Z,99796.81
2018-09-21T18:04:57.444Z,99813.64
2018-09-21T18:07:27.476Z,99821.06
2018-09-21T18:09:57.352Z,99824.19
2018-09-21T18:12:27.479Z,99833.56
2018-09-21T18:15:04.700Z,99834.68
2018-09-21T18:17:35.671Z,99833.28
2018-09-21T18:20:10.521Z,99846.94
2018-09-21T18:22:43.052Z,99845.52
2018-09-21T18:25:18.508Z,99845.23
2018-09-21T18:27:49.887Z,99852.09
2018-09-21T18:30:26.182Z,99854.13
2018-09-21T18:32:56.334Z,99851.45
2018-09-21T18:35:27.437Z,99858.05
2018-09-21T18:40:29.008Z,99865.02
2018-09-21T18:45:31.409Z,99868.69
2018-09-21T18:48:08.587Z,99880.05
2018-09-21T18:50:38.992Z,99879.48
2018-09-21T18:53:08.986Z,99883.62
2018-09-21T18:55:39.146Z,99893.78
2018-09-21T18:58:09.784Z,99901.30
2018-09-21T19:00:40.982Z,99899.06
2018-09-21T19:03:15.626Z,99897.30
2018-09-21T19:05:49.883Z,99900.92
2018-09-21T19:08:19.740Z,99909.56
2018-09-21T19:10:49.799Z,99917.30
2018-09-21T19:13:19.753Z,99934.95
2018-09-21T19:15:51.156Z,99927.84
2018-09-21T19:18:21.126Z,99936.01
2018-09-21T19:20:51.328Z,99932.34
2018-09-21T19:23:22.199Z,99942.36
2018-09-21T19:25:53.158Z,99949.13
2018-09-21T19:28:24.182Z,99959.88
2018-09-21T19:30:54.486Z,99969.45
2018-09-21T19:33:27.308Z,99973.77
2018-09-21T19:35:57.238Z,99987.63
2018-09-21T19:38:27.229Z,99995.53
2018-09-21T19:40:57.328Z,100017.01
2018-09-21T19:43:27.161Z,100011.55
2018-09-21T19:45:57.338Z,100000.45
2018-09-21T19:48:27.632Z,100009.03
2018-09-21T19:50:57.476Z,100019.38
2018-09-21T19:53:28.947Z,99995.16
2018-09-21T19:56:02.440Z,100013.84
2018-09-21T19:58:32.568Z,100027.72
2018-09-21T20:01:03.392Z,100028.05
2018-09-21T20:03:36.503Z,100025.02
2018-09-21T20:06:06.655Z,100039.83
2018-09-21T20:08:36.939Z,100040.72
2018-09-21T20:11:07.144Z,100037.81
2018-09-21T20:13:37.974Z,100058.80
2018-09-21T20:16:08.549Z,100070.17
2018-09-21T20:18:40.442Z,100064.84
2018-09-21T20:21:11.534Z,100080.50
2018-09-21T20:23:41.964Z,100100.38
2018-09-21T20:26:12.395Z,100132.28
2018-09-21T20:28:42.925Z,100133.80
2018-09-21T20:31:18.224Z,100117.34
2018-09-21T20:33:49.253Z,100097.34
2018-09-21T20:36:19.536Z,100097.10
2018-09-21T20:38:50.269Z,100098.84
2018-09-21T20:41:20.993Z,100103.80
2018-09-21T20:43:51.380Z,100095.91
2018-09-21T20:46:26.354Z,100104.34
2018-09-21T20:49:01.590Z,100101.43
2018-09-21T20:51:31.807Z,100114.56
2018-09-21T20:54:02.017Z,100119.38
2018-09-21T20:56:32.299Z,100120.82
2018-09-21T20:59:03.141Z,100136.67
2018-09-21T21:01:33.519Z,100137.12
2018-09-21T21:04:03.637Z,100121.73
2018-09-21T21:06:34.497Z,100114.52
2018-09-21T21:11:45.424Z,100106.98
2018-09-21T21:14:15.605Z,100094.52
2018-09-21T21:16:54.226Z,100122.44
2018-09-21T21:19:25.145Z,100106.48
2018-09-21T21:21:56.590Z,100122.16
2018-09-21T21:26:59.696Z,100111.61
2018-09-21T21:29:29.640Z,100114.16
2018-09-21T21:31:59.733Z,100116.42
2018-09-21T21:34:33.024Z,100114.78
2018-09-21T21:37:02.894Z,100114.00
2018-09-21T21:39:32.912Z,100120.02
2018-09-21T21:42:03.386Z,100142.94
2018-09-21T21:44:33.600Z,100143.05
2018-09-21T21:47:03.615Z,100163.43
2018-09-21T21:49:33.940Z,100156.83
2018-09-21T21:52:03.908Z,100159.28
2018-09-21T21:54:34.423Z,100160.08
2018-09-21T21:57:05.469Z,100151.05
2018-09-21T21:59:35.614Z,100136.14
2018-09-21T22:02:09.967Z,100131.05
2018-09-21T22:04:41.568Z,100130.20
2018-09-21T22:07:13.171Z,100131.52
2018-09-21T22:09:43.223Z,100145.52
2018-09-21T22:12:18.400Z,100137.89
2018-09-21T22:14:48.758Z,100143.72
2018-09-21T22:17:19.050Z,100146.47
2018-09-21T22:19:48.908Z,100139.38
2018-09-21T22:22:18.908Z,100153.41
2018-09-21T22:24:48.857Z,100155.27
2018-09-21T22:27:19.049Z,100146.77
2018-09-21T22:29:49.379Z,100158.63
2018-09-21T22:32:19.475Z,100142.05
2018-09-21T22:34:49.584Z,100150.31
2018-09-21T22:37:19.822Z,100153.56
2018-09-21T22:39:49.741Z,100161.36
2018-09-21T22:42:20.326Z,100185.46
2018-09-21T22:44:50.742Z,100203.92
2018-09-21T22:47:20.713Z,100223.36
2018-09-21T22:49:50.992Z,100235.33
2018-09-21T22:52:21.243Z,100225.70
2018-09-21T22:54:51.443Z,100217.20
2018-09-21T22:57:21.604Z,100197.61
2018-09-21T22:59:51.770Z,100200.41
2018-09-21T23:02:21.808Z,100215.98
2018-09-21T23:04:51.961Z,100207.16
2018-09-21T23:07:22.068Z,100197.44
2018-09-21T23:09:52.183Z,100197.02
2018-09-21T23:12:22.098Z,100198.72
2018-09-21T23:14:52.012Z,100197.50
2018-09-21T23:17:22.038Z,100214.91
2018-09-21T23:19:51.859Z,100218.91
2018-09-21T23:22:21.876Z,100207.80
2018-09-21T23:24:51.705Z,100200.22
2018-09-21T23:27:21.632Z,100199.59
2018-09-21T23:29:51.391Z,100210.34
2018-09-21T23:32:21.429Z,100201.66
2018-09-21T23:34:58.453Z,100210.06
2018-09-21T23:37:30.108Z,100219.48
2018-09-21T23:40:00.998Z,100219.37
2018-09-21T23:42:31.115Z,100218.90
2018-09-21T23:45:06.356Z,100229.01
2018-09-21T23:47:40.610Z,100231.48
2018-09-21T23:50:11.783Z,100236.25
2018-09-21T23:52:42.459Z,100240.31
2018-09-21T23:55:13.146Z,100233.95
2018-09-21T23:57:49.020Z,100234.13
